Time;durP1;ratioP1;P1;durP2;ratioP2;P2;SDS_P1;SDS_P2;PMS_P1;PMS_P2;Temp;Humidity;BMP_temperature;BMP_pressure;BME280_temperature;BME280_humidity;BME280_pressure;Samples;Min_cycle;Max_cycle;Signal;HPM_P1;HPM_P2
2022/11/18 00:01:11;;;;;;;29.35;11.77;;;7.20;99.90;;;;;;5135554;27;20096;-73
2022/11/18 00:03:38;;;;;;;27.50;11.90;;;7.20;99.90;;;;;;5134660;27;20530;-73
2022/11/18 00:06:05;;;;;;;26.55;12.98;;;7.20;99.90;;;;;;5135693;27;20512;-73
2022/11/18 00:08:31;;;;;;;28.25;12.23;;;7.20;99.90;;;;;;5135858;27;20107;-73
2022/11/18 00:10:57;;;;;;;28.73;13.00;;;7.20;99.90;;;;;;5117000;27;20046;-73
2022/11/18 00:16:09;;;;;;;33.20;14.65;;;7.20;99.90;;;;;;5135171;27;20048;-73
2022/11/18 00:18:36;;;;;;;33.58;15.35;;;7.20;99.90;;;;;;5135123;27;20054;-73
2022/11/18 00:21:03;;;;;;;34.95;15.50;;;7.20;99.90;;;;;;5116947;27;20156;-74
2022/11/18 00:23:29;;;;;;;37.53;16.75;;;7.20;99.90;;;;;;5134964;27;20091;-73
2022/11/18 00:26:00;;;;;;;36.15;16.38;;;7.20;99.90;;;;;;5134987;27;20099;-74
2022/11/18 00:28:25;;;;;;;36.10;16.83;;;7.30;99.90;;;;;;5135560;27;20097;-74
2022/11/18 00:30:51;;;;;;;37.03;16.55;;;7.20;99.90;;;;;;5134880;27;20176;-74
2022/11/18 00:33:17;;;;;;;45.88;16.73;;;7.20;99.90;;;;;;5099389;27;20459;-74
2022/11/18 00:35:42;;;;;;;40.97;17.63;;;7.30;99.90;;;;;;5134958;27;20050;-73
2022/11/18 00:38:08;;;;;;;48.92;16.90;;;7.30;99.90;;;;;;5134833;27;20058;-75
2022/11/18 00:40:34;;;;;;;48.85;17.42;;;7.40;99.90;;;;;;5116764;27;20428;-73
2022/11/18 00:42:59;;;;;;;38.97;16.85;;;7.40;99.90;;;;;;5083141;27;20444;-75
2022/11/18 00:45:25;;;;;;;37.42;16.30;;;7.40;99.90;;;;;;5116391;27;20115;-73
2022/11/18 00:47:51;;;;;;;43.72;17.92;;;7.40;99.90;;;;;;5134659;27;20043;-73
2022/11/18 00:50:16;;;;;;;46.05;17.23;;;7.40;99.90;;;;;;5134523;27;20100;-76
2022/11/18 00:52:42;;;;;;;45.42;18.55;;;7.50;99.90;;;;;;5116309;27;20134;-73
2022/11/18 00:55:08;;;;;;;46.42;17.85;;;7.50;99.90;;;;;;5116643;27;20058;-75
2022/11/18 00:57:34;;;;;;;54.22;18.75;;;7.50;99.90;;;;;;5099307;27;20039;-73
2022/11/18 00:59:59;;;;;;;46.63;17.05;;;7.50;99.90;;;;;;5116135;27;20087;-76
2022/11/18 01:02:25;;;;;;;45.05;17.20;;;7.50;99.90;;;;;;5099566;27;20367;-74
2022/11/18 01:04:51;;;;;;;45.30;16.00;;;7.60;99.90;;;;;;5134777;27;20039;-73
2022/11/18 01:07:16;;;;;;;43.03;17.20;;;7.60;99.90;;;;;;5099070;27;20043;-74
2022/11/18 01:09:42;;;;;;;37.60;13.82;;;7.60;99.90;;;;;;5099327;27;20254;-74
2022/11/18 01:14:54;;;;;;;44.50;17.45;;;7.70;99.90;;;;;;5133997;27;20051;-73
2022/11/18 01:17:20;;;;;;;52.88;18.23;;;7.70;99.90;;;;;;5134111;27;20050;-74
2022/11/18 01:19:46;;;;;;;52.53;18.73;;;7.60;99.90;;;;;;5115955;27;20506;-72
2022/11/18 01:22:11;;;;;;;44.83;16.20;;;7.70;99.90;;;;;;5099305;27;20047;-74
2022/11/18 01:24:37;;;;;;;43.53;16.58;;;7.70;99.90;;;;;;5116772;27;20126;-72
2022/11/18 01:27:03;;;;;;;49.67;18.48;;;7.70;99.90;;;;;;5115780;27;20125;-74
2022/11/18 01:29:29;;;;;;;50.47;18.15;;;7.70;99.90;;;;;;5134052;27;20049;-74
2022/11/18 01:31:55;;;;;;;50.08;18.77;;;7.70;99.90;;;;;;5134003;27;20068;-73
2022/11/18 01:34:21;;;;;;;55.90;19.48;;;7.70;99.90;;;;;;5115676;28;20497;-73
2022/11/18 01:36:46;;;;;;;46.05;18.05;;;7.70;99.90;;;;;;5098484;27;20111;-73
2022/11/18 01:39:12;;;;;;;62.47;19.15;;;7.60;99.90;;;;;;5115617;27;20133;-74
2022/11/18 01:41:38;;;;;;;50.00;18.48;;;7.70;99.90;;;;;;5098554;27;20544;-72
2022/11/18 01:44:25;;;;;;;57.47;17.85;;;7.70;99.90;;;;;;5133757;27;20043;-74
2022/11/18 01:46:51;;;;;;;51.08;16.50;;;7.70;99.90;;;;;;5115382;28;20120;-74
2022/11/18 01:49:17;;;;;;;43.42;16.75;;;7.70;99.90;;;;;;5115270;28;20118;-73
2022/11/18 01:51:52;;;;;;;52.50;18.73;;;7.80;99.90;;;;;;5133982;28;20058;-74
2022/11/18 01:54:30;;;;;;;48.25;17.63;;;7.70;99.90;;;;;;5116426;28;20047;-76
2022/11/18 01:57:00;;;;;;;50.17;17.70;;;7.70;99.90;;;;;;5115595;28;20051;-74
2022/11/18 01:59:30;;;;;;;52.60;19.15;;;7.70;99.90;;;;;;5116029;28;20119;-73
2022/11/18 02:01:56;;;;;;;55.10;19.10;;;7.70;99.90;;;;;;5133441;28;20039;-73
2022/11/18 02:04:24;;;;;;;51.45;18.70;;;7.70;99.90;;;;;;5133342;28;20139;-74
2022/11/18 02:06:50;;;;;;;49.70;18.35;;;7.70;99.90;;;;;;5134467;28;20050;-74
2022/11/18 02:09:16;;;;;;;55.28;18.48;;;7.70;99.90;;;;;;5133387;28;20118;-73
2022/11/18 02:11:55;;;;;;;49.67;18.05;;;7.70;99.90;;;;;;5098286;28;20049;-76
2022/11/18 02:14:28;;;;;;;54.03;18.50;;;7.70;99.90;;;;;;5133364;28;20126;-73
2022/11/18 02:17:24;;;;;;;57.90;19.90;;;7.70;99.90;;;;;;5134591;28;20108;-74
2022/11/18 02:20:17;;;;;;;49.90;18.07;;;7.70;99.90;;;;;;5134483;28;20043;-74
2022/11/18 02:22:55;;;;;;;51.35;18.50;;;7.70;99.90;;;;;;5133768;28;20353;-74
2022/11/18 02:25:26;;;;;;;58.28;20.35;;;7.70;99.90;;;;;;5133521;28;20054;-73
2022/11/18 02:28:22;;;;;;;65.60;20.83;;;7.70;99.90;;;;;;5136190;27;20051;-73
2022/11/18 02:30:54;;;;;;;58.53;20.63;;;7.70;99.90;;;;;;5138154;27;20055;-73
2022/11/18 02:33:28;;;;;;;61.58;21.55;;;7.70;99.90;;;;;;5137656;27;20039;-74
2022/11/18 02:36:10;;;;;;;64.57;22.60;;;7.70;99.90;;;;;;5119175;27;20390;-74
2022/11/18 02:38:43;;;;;;;62.88;22.20;;;7.60;99.90;;;;;;5102196;27;20047;-72
2022/11/18 02:41:14;;;;;;;69.00;22.23;;;7.70;99.90;;;;;;5136612;27;20554;-73
2022/11/18 02:43:48;;;;;;;69.72;23.02;;;7.60;99.90;;;;;;5118296;27;20049;-74
2022/11/18 02:46:20;;;;;;;63.28;20.70;;;7.70;99.90;;;;;;5119540;27;20035;-73
2022/11/18 02:48:50;;;;;;;71.93;23.20;;;7.70;99.90;;;;;;5136863;27;20082;-74
2022/11/18 02:51:22;;;;;;;65.53;21.02;;;7.70;99.90;;;;;;5137505;27;20121;-75
2022/11/18 02:53:49;;;;;;;65.57;23.38;;;7.70;99.90;;;;;;5136944;27;20039;-74
2022/11/18 02:56:17;;;;;;;65.80;22.35;;;7.70;99.90;;;;;;5118556;27;20131;-73
2022/11/18 02:58:43;;;;;;;65.57;22.45;;;7.70;99.90;;;;;;5137506;27;20054;-75
2022/11/18 03:01:35;;;;;;;63.50;22.17;;;7.70;99.90;;;;;;5101866;27;20055;-73
2022/11/18 03:04:01;;;;;;;60.75;21.27;;;7.70;99.90;;;;;;5113650;27;20308;-74
2022/11/18 03:06:41;;;;;;;62.53;24.35;;;7.70;99.90;;;;;;5136403;27;20047;-72
2022/11/18 03:09:18;;;;;;;90.65;22.80;;;7.70;99.90;;;;;;5137376;27;20031;-75
2022/11/18 03:12:12;;;;;;;62.63;22.60;;;7.70;99.90;;;;;;5136803;27;20066;-74
2022/11/18 03:14:49;;;;;;;57.70;18.35;;;7.70;99.90;;;;;;5136466;27;20043;-76
2022/11/18 03:17:29;;;;;;;59.58;21.42;;;7.80;99.90;;;;;;5136221;27;20043;-74
2022/11/18 03:20:06;;;;;;;59.47;21.30;;;7.80;99.90;;;;;;5118374;27;20099;-74
2022/11/18 03:22:46;;;;;;;56.42;20.88;;;7.70;99.90;;;;;;5101062;27;20051;-75
2022/11/18 03:25:21;;;;;;;55.40;16.15;;;7.70;99.90;;;;;;5136563;27;20047;-74
2022/11/18 03:28:04;;;;;;;59.03;22.13;;;7.70;99.90;;;;;;5118354;27;20413;-73
2022/11/18 03:30:33;;;;;;;61.95;22.67;;;7.70;99.90;;;;;;5118140;27;20043;-74
2022/11/18 03:33:04;;;;;;;68.93;22.75;;;7.70;99.90;;;;;;5136371;27;20039;-74
2022/11/18 03:35:33;;;;;;;61.38;22.50;;;7.70;99.90;;;;;;5136232;27;20053;-74
2022/11/18 03:38:12;;;;;;;56.20;21.42;;;7.70;99.90;;;;;;5100893;27;20058;-74
2022/11/18 03:40:41;;;;;;;59.92;22.08;;;7.70;99.90;;;;;;5101511;27;20144;-73
2022/11/18 03:43:14;;;;;;;62.67;22.10;;;7.70;99.90;;;;;;5100326;27;20049;-74
2022/11/18 03:45:47;;;;;;;67.95;23.58;;;7.70;99.90;;;;;;5135905;27;20054;-74
2022/11/18 03:48:18;;;;;;;61.17;22.48;;;7.70;99.90;;;;;;5135967;27;20155;-74
2022/11/18 03:51:00;;;;;;;63.85;22.75;;;7.70;99.90;;;;;;5101130;27;20382;-74
2022/11/18 03:53:31;;;;;;;63.45;22.95;;;7.70;99.90;;;;;;5135400;27;20051;-73
2022/11/18 03:56:14;;;;;;;66.45;23.38;;;7.70;99.90;;;;;;5136578;27;20099;-74
2022/11/18 03:59:05;;;;;;;64.07;23.60;;;7.70;99.90;;;;;;5100345;27;20107;-74
2022/11/18 04:01:39;;;;;;;71.68;24.55;;;7.70;99.90;;;;;;5100184;27;20099;-75
2022/11/18 04:04:06;;;;;;;64.72;22.70;;;7.70;99.90;;;;;;5136179;27;20138;-74
2022/11/18 04:06:37;;;;;;;58.67;22.65;;;7.70;99.90;;;;;;5135102;27;20114;-73
2022/11/18 04:09:11;;;;;;;69.07;23.98;;;7.70;99.90;;;;;;5135413;27;20062;-73
2022/11/18 04:12:02;;;;;;;64.97;24.00;;;7.70;99.90;;;;;;5135502;27;20054;-74
2022/11/18 04:14:39;;;;;;;62.13;22.38;;;7.70;99.90;;;;;;5136667;27;20391;-73
2022/11/18 04:17:10;;;;;;;66.25;24.35;;;7.70;99.90;;;;;;5118342;27;20405;-73
2022/11/18 04:19:36;;;;;;;63.08;20.17;;;7.70;99.90;;;;;;5117066;27;20383;-73
2022/11/18 04:22:02;;;;;;;72.68;24.52;;;7.70;99.90;;;;;;5135923;27;20441;-74
2022/11/18 04:24:28;;;;;;;67.40;23.92;;;7.80;99.90;;;;;;5135910;27;20107;-73
2022/11/18 04:26:53;;;;;;;61.90;23.08;;;7.70;99.90;;;;;;5135284;27;20056;-74
2022/11/18 04:29:19;;;;;;;65.60;23.27;;;7.70;99.90;;;;;;5135634;27;20395;-75
2022/11/18 04:31:45;;;;;;;61.80;22.30;;;7.70;99.90;;;;;;5135347;27;20163;-73
2022/11/18 04:34:11;;;;;;;62.40;22.27;;;7.70;99.90;;;;;;5135832;27;20117;-73
2022/11/18 04:36:37;;;;;;;61.47;23.50;;;7.70;99.90;;;;;;5135518;27;20376;-74
2022/11/18 04:39:02;;;;;;;72.20;23.05;;;7.70;99.90;;;;;;5083567;27;20050;-74
2022/11/18 04:44:12;;;;;;;70.78;24.13;;;7.70;99.90;;;;;;5119852;27;20051;-73
2022/11/18 04:46:42;;;;;;;62.70;22.45;;;7.70;99.90;;;;;;5116873;27;20096;-73
2022/11/18 04:49:09;;;;;;;62.88;23.15;;;7.70;99.90;;;;;;5135281;27;20051;-73
2022/11/18 04:51:35;;;;;;;62.80;24.13;;;7.70;99.90;;;;;;5135206;27;20157;-75
2022/11/18 04:54:02;;;;;;;65.25;23.13;;;7.70;99.90;;;;;;5134857;27;20439;-73
2022/11/18 04:56:27;;;;;;;63.90;23.13;;;7.70;99.90;;;;;;5116501;27;20078;-73
2022/11/18 04:58:53;;;;;;;62.58;22.65;;;7.70;99.90;;;;;;5116770;27;20129;-73
2022/11/18 05:01:19;;;;;;;64.85;22.48;;;7.70;99.90;;;;;;5134454;27;20446;-73
2022/11/18 05:03:44;;;;;;;65.85;23.85;;;7.70;99.90;;;;;;5134743;27;20427;-73
2022/11/18 05:06:10;;;;;;;71.13;24.50;;;7.70;99.90;;;;;;5116739;27;20043;-74
2022/11/18 05:08:36;;;;;;;69.35;22.63;;;7.70;99.90;;;;;;5134453;27;20416;-75
2022/11/18 05:13:50;;;;;;;70.80;23.40;;;7.80;99.90;;;;;;5134222;27;20057;-74
2022/11/18 05:16:16;;;;;;;68.95;24.17;;;7.70;99.90;;;;;;5115704;27;20051;-74
2022/11/18 05:18:42;;;;;;;70.15;23.75;;;7.60;99.90;;;;;;5134425;27;20054;-74
2022/11/18 05:21:08;;;;;;;71.60;23.73;;;7.70;99.90;;;;;;5133653;27;20398;-74
2022/11/18 05:23:33;;;;;;;74.03;23.85;;;7.70;99.90;;;;;;5115303;27;20039;-75
2022/11/18 05:26:07;;;;;;;62.60;21.08;;;7.70;99.90;;;;;;5115442;27;20046;-75
2022/11/18 05:28:33;;;;;;;69.65;23.38;;;7.60;99.90;;;;;;5098457;27;20120;-73
2022/11/18 05:30:59;;;;;;;72.82;24.15;;;7.60;99.90;;;;;;5099425;28;20051;-74
2022/11/18 05:33:25;;;;;;;65.90;22.07;;;7.60;99.90;;;;;;5133524;27;20039;-74
2022/11/18 05:35:51;;;;;;;71.28;23.48;;;7.60;99.90;;;;;;5098566;28;20043;-75
2022/11/18 05:38:17;;;;;;;68.78;23.40;;;7.60;99.90;;;;;;5098315;27;20055;-74
2022/11/18 05:40:42;;;;;;;67.95;23.05;;;7.60;99.90;;;;;;5115687;27;20099;-75
2022/11/18 05:43:12;;;;;;;69.32;23.40;;;7.60;99.90;;;;;;5114851;27;20486;-75
2022/11/18 05:45:43;;;;;;;65.72;23.67;;;7.60;99.90;;;;;;5115570;28;20073;-76
2022/11/18 05:48:09;;;;;;;66.65;22.85;;;7.60;99.90;;;;;;5115291;28;20047;-75
2022/11/18 05:50:37;;;;;;;70.30;21.98;;;7.60;99.90;;;;;;5098387;28;20058;-74
2022/11/18 05:53:04;;;;;;;62.38;21.45;;;7.60;99.90;;;;;;5115112;28;20039;-75
2022/11/18 05:55:43;;;;;;;53.45;19.73;;;7.50;99.90;;;;;;5115179;28;20043;-76
2022/11/18 05:58:08;;;;;;;68.57;21.67;;;7.60;99.90;;;;;;5133944;28;20335;-74
2022/11/18 06:00:35;;;;;;;68.60;22.73;;;7.60;99.90;;;;;;5098552;27;20039;-76
2022/11/18 06:03:01;;;;;;;64.10;22.80;;;7.50;99.90;;;;;;5137059;27;20483;-76
2022/11/18 06:05:27;;;;;;;67.22;22.88;;;7.60;99.90;;;;;;5137630;27;20054;-76
2022/11/18 06:07:56;;;;;;;60.53;21.42;;;7.60;99.90;;;;;;5119049;27;20078;-76
2022/11/18 06:10:26;;;;;;;71.40;24.17;;;7.60;99.90;;;;;;5119051;27;20043;-79
2022/11/18 06:12:57;;;;;;;58.28;22.35;;;7.60;99.90;;;;;;5101922;27;20051;-76
2022/11/18 06:15:30;;;;;;;60.67;22.15;;;7.50;99.90;;;;;;5119473;27;20062;-75
2022/11/18 06:18:04;;;;;;;58.58;23.17;;;7.60;99.90;;;;;;5119110;27;20466;-76
2022/11/18 06:20:34;;;;;;;60.50;22.85;;;7.50;99.90;;;;;;5119460;27;20051;-77
2022/11/18 06:23:00;;;;;;;56.95;20.70;;;7.50;99.90;;;;;;5118872;27;20123;-75
2022/11/18 06:25:27;;;;;;;60.00;21.38;;;7.60;99.90;;;;;;5137432;27;20051;-76
2022/11/18 06:27:56;;;;;;;59.13;22.07;;;7.60;99.90;;;;;;5118558;27;20047;-75
2022/11/18 06:30:22;;;;;;;56.88;20.40;;;7.50;99.90;;;;;;5119642;27;20304;-75
2022/11/18 06:32:48;;;;;;;50.63;18.30;;;7.50;99.90;;;;;;5119600;27;20051;-76
2022/11/18 06:35:13;;;;;;;54.97;19.55;;;7.60;99.90;;;;;;5137307;27;20043;-76
2022/11/18 06:37:39;;;;;;;53.35;20.20;;;7.50;99.90;;;;;;5137010;27;20088;-76
2022/11/18 06:40:05;;;;;;;49.85;19.80;;;7.60;99.90;;;;;;5118767;27;20043;-78
2022/11/18 06:45:16;;;;;;;47.55;18.42;;;7.50;99.90;;;;;;5119268;27;20288;-78
2022/11/18 06:47:41;;;;;;;55.55;19.48;;;7.50;99.90;;;;;;5118860;27;20050;-77
2022/11/18 06:50:07;;;;;;;55.53;19.77;;;7.50;99.90;;;;;;5136814;27;20054;-75
2022/11/18 06:52:33;;;;;;;53.67;19.35;;;7.50;99.90;;;;;;5118306;27;20049;-76
2022/11/18 06:54:59;;;;;;;59.15;20.65;;;7.60;99.90;;;;;;5101594;27;20130;-77
2022/11/18 06:57:24;;;;;;;52.28;19.60;;;7.60;99.90;;;;;;5101289;27;20054;-76
2022/11/18 06:59:50;;;;;;;53.55;19.58;;;7.50;99.90;;;;;;5118187;27;20043;-77
2022/11/18 07:02:17;;;;;;;51.20;19.52;;;7.60;99.90;;;;;;5136384;27;20043;-76
2022/11/18 07:04:43;;;;;;;;;;;7.50;99.90;;;;;;5118910;27;20047;-75
2022/11/18 07:07:09;;;;;;;50.00;17.40;;;7.50;99.90;;;;;;5118249;27;19923;-75
2022/11/18 07:09:36;;;;;;;54.88;18.35;;;7.50;99.90;;;;;;5119126;27;20400;-80
2022/11/18 07:12:02;;;;;;;48.35;18.55;;;7.50;99.90;;;;;;5136419;27;20134;-76
2022/11/18 07:14:27;;;;;;;54.08;18.30;;;7.50;99.90;;;;;;5099941;27;20089;-77
2022/11/18 07:16:53;;;;;;;45.88;16.48;;;7.50;99.90;;;;;;5119904;27;20036;-77
2022/11/18 07:19:19;;;;;;;34.45;12.07;;;7.50;99.90;;;;;;5119116;27;20409;-76
2022/11/18 07:21:44;;;;;;;41.83;12.98;;;7.50;99.90;;;;;;5118213;27;20391;-75
2022/11/18 07:24:13;;;;;;;45.83;16.05;;;7.60;99.90;;;;;;5100985;27;20039;-75
2022/11/18 07:26:39;;;;;;;45.45;16.02;;;7.60;99.90;;;;;;5137448;27;20051;-76
2022/11/18 07:29:05;;;;;;;43.63;15.20;;;7.50;99.90;;;;;;5101428;27;20051;-76
2022/11/18 07:31:32;;;;;;;41.05;15.20;;;7.40;99.90;;;;;;5117699;27;20316;-75
2022/11/18 07:33:58;;;;;;;;;;;7.50;99.90;;;;;;5136075;27;20036;-76
2022/11/18 07:36:28;;;;;;;43.67;14.77;;;7.40;99.90;;;;;;5136816;27;19919;-76
2022/11/18 07:38:54;;;;;;;42.67;13.98;;;7.40;99.90;;;;;;5118669;27;20039;-77
2022/11/18 07:41:22;;;;;;;40.78;15.82;;;7.40;99.90;;;;;;5117493;27;20043;-77
2022/11/18 07:43:51;;;;;;;44.22;14.25;;;7.40;99.90;;;;;;5135371;27;20126;-76
2022/11/18 07:46:22;;;;;;;36.50;13.65;;;7.40;99.90;;;;;;5135790;27;20126;-77
2022/11/18 07:48:53;;;;;;;34.90;13.10;;;7.40;99.90;;;;;;5117181;27;20104;-76
2022/11/18 07:51:22;;;;;;;35.47;12.95;;;7.40;99.90;;;;;;5135368;27;20043;-76
2022/11/18 07:53:48;;;;;;;35.80;12.45;;;7.40;99.90;;;;;;5135135;27;20042;-75
2022/11/18 07:56:14;;;;;;;32.20;13.35;;;7.40;99.90;;;;;;5135444;27;20047;-75
2022/11/18 07:58:41;;;;;;;33.80;13.18;;;7.40;99.90;;;;;;5117287;27;20171;-76
2022/11/18 08:01:17;;;;;;;35.08;12.65;;;7.40;99.90;;;;;;5135115;27;20043;-79
2022/11/18 08:03:44;;;;;;;35.85;12.25;;;7.40;99.90;;;;;;5135220;27;20047;-74
2022/11/18 08:06:12;;;;;;;27.73;11.55;;;7.40;99.90;;;;;;5099902;27;20054;-76
2022/11/18 08:08:38;;;;;;;33.55;12.18;;;7.40;99.90;;;;;;5135014;27;20050;-77
2022/11/18 08:11:07;;;;;;;33.10;12.63;;;7.40;99.90;;;;;;5135086;27;20078;-75
2022/11/18 08:13:33;;;;;;;34.20;12.25;;;7.40;99.90;;;;;;5135245;27;20050;-75
2022/11/18 08:15:59;;;;;;;34.30;13.50;;;7.40;99.90;;;;;;5116601;27;20046;-75
2022/11/18 08:18:27;;;;;;;36.55;13.32;;;7.40;99.90;;;;;;5116592;27;20442;-75
2022/11/18 08:20:53;;;;;;;40.28;13.82;;;7.40;99.90;;;;;;5116648;27;20050;-75
2022/11/18 08:23:19;;;;;;;37.70;13.35;;;7.40;99.90;;;;;;5134559;27;20039;-77
2022/11/18 08:25:45;;;;;;;36.45;12.95;;;7.40;99.90;;;;;;5115472;27;20039;-75
2022/11/18 08:28:12;;;;;;;35.33;12.50;;;7.30;99.90;;;;;;5082709;27;20066;-75
2022/11/18 08:30:38;;;;;;;34.67;11.93;;;7.30;99.90;;;;;;5134697;27;20474;-75
2022/11/18 08:33:04;;;;;;;34.15;12.60;;;7.40;99.90;;;;;;5134255;27;20047;-76
2022/11/18 08:35:31;;;;;;;32.97;12.32;;;7.40;99.90;;;;;;5117196;27;20084;-76
2022/11/18 08:37:58;;;;;;;35.83;12.30;;;7.40;99.90;;;;;;5115907;27;20047;-76
2022/11/18 08:40:24;;;;;;;32.17;12.20;;;7.40;99.90;;;;;;5116216;27;20039;-74
2022/11/18 08:42:49;;;;;;;38.33;12.55;;;7.40;99.90;;;;;;5134339;27;20103;-76
2022/11/18 08:45:15;;;;;;;33.35;11.73;;;7.40;99.90;;;;;;5100142;27;20130;-78
2022/11/18 08:47:41;;;;;;;31.88;12.65;;;7.50;99.90;;;;;;5116731;27;20142;-80
2022/11/18 08:50:09;;;;;;;31.42;11.50;;;7.50;99.90;;;;;;5134578;27;20064;-79
2022/11/18 08:52:35;;;;;;;33.55;12.23;;;7.40;99.90;;;;;;5134419;27;20058;-80
2022/11/18 08:55:01;;;;;;;31.88;10.98;;;7.50;99.90;;;;;;5135074;27;20038;-80
2022/11/18 08:57:27;;;;;;;37.55;13.07;;;7.50;99.90;;;;;;5134141;27;20047;-79
2022/11/18 08:59:53;;;;;;;37.00;12.50;;;7.50;99.90;;;;;;5116180;27;20057;-78
2022/11/18 09:02:22;;;;;;;37.83;13.32;;;7.50;99.90;;;;;;5100052;27;20429;-78
2022/11/18 09:04:49;;;;;;;34.88;11.57;;;7.50;99.90;;;;;;5134254;27;20445;-78
2022/11/18 09:07:15;;;;;;;33.13;11.38;;;7.50;99.90;;;;;;5134106;27;20035;-79
2022/11/18 09:09:41;;;;;;;36.88;12.50;;;7.50;99.90;;;;;;5134086;27;20452;-78
2022/11/18 09:12:08;;;;;;;33.33;12.70;;;7.50;99.90;;;;;;5115718;27;20059;-77
2022/11/18 09:14:34;;;;;;;31.55;12.35;;;7.50;99.90;;;;;;5115720;27;20043;-78
2022/11/18 09:17:00;;;;;;;34.38;13.13;;;7.50;99.90;;;;;;5116008;27;20055;-79
2022/11/18 09:19:26;;;;;;;29.83;11.25;;;7.50;99.90;;;;;;5099700;27;20043;-77
2022/11/18 09:21:52;;;;;;;35.38;12.88;;;7.50;99.90;;;;;;5115620;27;20051;-77
2022/11/18 09:24:18;;;;;;;34.67;11.48;;;7.50;99.90;;;;;;5115875;27;20042;-77
2022/11/18 09:26:44;;;;;;;37.38;12.80;;;7.50;99.90;;;;;;5098269;27;20061;-78
2022/11/18 09:29:13;;;;;;;35.40;12.90;;;7.50;99.90;;;;;;5133659;27;20050;-78
2022/11/18 09:31:38;;;;;;;33.42;11.90;;;7.50;99.90;;;;;;5116768;27;20043;-78
2022/11/18 09:34:04;;;;;;;30.88;11.82;;;7.60;99.90;;;;;;5134011;27;20400;-79
2022/11/18 09:36:30;;;;;;;35.42;12.05;;;7.60;99.90;;;;;;5115963;28;20043;-78
2022/11/18 09:38:58;;;;;;;29.05;11.60;;;7.60;99.90;;;;;;5116258;27;20075;-77
2022/11/18 09:41:42;;;;;;;29.55;10.77;;;7.70;99.90;;;;;;5115333;28;20448;-79
2022/11/18 09:44:16;;;;;;;30.92;10.95;;;7.70;99.90;;;;;;5134147;27;20043;-78
2022/11/18 09:46:48;;;;;;;28.60;10.65;;;7.70;99.90;;;;;;5134288;27;20059;-76
2022/11/18 09:49:31;;;;;;;29.05;11.80;;;7.70;99.90;;;;;;5133297;28;20118;-77
2022/11/18 09:52:01;;;;;;;26.02;10.18;;;7.70;99.90;;;;;;5134268;28;20042;-76
2022/11/18 09:54:33;;;;;;;24.15;9.60;;;7.70;99.90;;;;;;5134091;28;20051;-79
2022/11/18 09:56:59;;;;;;;26.80;9.82;;;7.70;99.90;;;;;;5133807;28;20115;-77
2022/11/18 09:59:29;;;;;;;28.45;10.98;;;7.80;99.90;;;;;;5115427;28;20058;-78
2022/11/18 10:02:02;;;;;;;27.23;10.82;;;7.80;99.90;;;;;;5133814;28;20081;-78
2022/11/18 10:04:28;;;;;;;34.47;11.98;;;7.80;99.90;;;;;;5115264;28;20566;-77
2022/11/18 10:06:54;;;;;;;29.25;11.27;;;7.80;99.90;;;;;;5133375;28;20043;-76
2022/11/18 10:09:38;;;;;;;30.83;11.20;;;7.80;99.90;;;;;;5133786;28;20149;-77
2022/11/18 10:12:21;;;;;;;30.42;10.75;;;7.90;99.90;;;;;;5133266;28;20122;-77
2022/11/18 10:15:03;;;;;;;30.30;10.27;;;7.90;99.90;;;;;;5133446;28;20471;-79
2022/11/18 10:17:50;;;;;;;24.58;9.35;;;7.90;99.90;;;;;;5097878;28;20079;-76
2022/11/18 10:20:22;;;;;;;23.25;9.18;;;8.00;99.90;;;;;;5133623;28;20405;-78
2022/11/18 10:23:15;;;;;;;24.55;9.93;;;7.90;99.90;;;;;;5115022;28;20039;-78
2022/11/18 10:25:41;;;;;;;25.90;9.57;;;7.90;99.90;;;;;;5133266;28;20107;-77
2022/11/18 10:28:24;;;;;;;23.08;9.13;;;7.90;99.90;;;;;;5114139;27;20055;-75
2022/11/18 10:30:50;;;;;;;28.67;10.77;;;7.90;99.90;;;;;;5133491;28;20059;-76
2022/11/18 10:33:21;;;;;;;28.00;10.60;;;8.00;99.90;;;;;;5114808;28;20456;-76
2022/11/18 10:35:47;;;;;;;26.25;10.48;;;7.90;99.90;;;;;;5133122;28;20047;-77
2022/11/18 10:38:12;;;;;;;34.58;12.10;;;7.90;99.90;;;;;;5133103;28;20047;-77
2022/11/18 10:40:44;;;;;;;29.25;10.90;;;7.90;99.90;;;;;;5115094;28;20317;-75
2022/11/18 10:43:12;;;;;;;30.75;11.43;;;8.00;99.90;;;;;;5097801;28;20039;-75
2022/11/18 10:45:38;;;;;;;31.45;11.95;;;8.00;99.90;;;;;;5098317;28;20479;-76
2022/11/18 10:48:19;;;;;;;32.53;12.38;;;7.90;99.90;;;;;;5115953;27;20046;-76
2022/11/18 10:50:50;;;;;;;32.53;12.90;;;7.90;99.90;;;;;;5102423;27;20086;-76
2022/11/18 10:53:36;;;;;;;32.95;11.85;;;7.90;99.90;;;;;;5136644;27;20043;-77
2022/11/18 10:56:03;;;;;;;33.42;13.18;;;7.90;99.90;;;;;;5118213;27;20055;-75
2022/11/18 10:58:33;;;;;;;32.28;13.15;;;7.90;99.90;;;;;;5136609;27;20125;-76
2022/11/18 11:01:17;;;;;;;30.25;12.10;;;7.80;99.90;;;;;;5136929;27;20043;-78
2022/11/18 11:04:03;;;;;;;32.03;11.48;;;7.80;99.90;;;;;;5118319;27;20043;-76
2022/11/18 11:06:36;;;;;;;31.60;11.27;;;7.80;99.90;;;;;;5136535;27;20075;-76
2022/11/18 11:09:10;;;;;;;32.00;11.80;;;7.80;99.90;;;;;;5137225;27;20112;-77
2022/11/18 11:11:44;;;;;;;26.92;10.65;;;7.80;99.90;;;;;;5118414;27;20437;-76
2022/11/18 11:14:25;;;;;;;23.50;9.40;;;7.80;99.90;;;;;;5117709;27;20532;-76
2022/11/18 11:17:09;;;;;;;26.08;9.77;;;7.70;99.90;;;;;;5136495;27;20134;-76
2022/11/18 11:19:57;;;;;;;24.13;9.00;;;7.70;99.90;;;;;;5136605;27;20089;-75
2022/11/18 11:22:23;;;;;;;19.95;8.10;;;7.60;99.90;;;;;;5101399;27;20470;-76
2022/11/18 11:24:49;;;;;;;20.48;7.65;;;7.60;99.90;;;;;;5084805;27;20091;-77
2022/11/18 11:27:41;;;;;;;21.48;7.80;;;7.60;99.90;;;;;;5117726;27;20043;-76
2022/11/18 11:30:14;;;;;;;21.00;7.63;;;7.60;99.90;;;;;;5117543;27;20057;-77
2022/11/18 11:33:10;;;;;;;18.52;6.97;;;7.60;99.90;;;;;;5117947;27;20054;-79
2022/11/18 11:36:05;;;;;;;15.60;6.28;;;7.60;99.90;;;;;;5117962;27;20092;-75
2022/11/18 11:38:55;;;;;;;14.73;5.97;;;7.70;99.90;;;;;;5135706;27;20047;-78
2022/11/18 11:41:29;;;;;;;15.23;6.40;;;7.90;99.90;;;;;;5136010;27;20091;-73
2022/11/18 11:44:34;;;;;;;17.00;6.80;;;7.90;99.90;;;;;;5101024;27;20051;-75
2022/11/18 11:47:49;;;;;;;16.90;6.90;;;7.90;99.90;;;;;;5117951;27;20076;-76
2022/11/18 11:50:57;;;;;;;17.30;7.03;;;7.90;99.90;;;;;;5135945;27;20110;-76
2022/11/18 11:53:55;;;;;;;17.60;6.25;;;7.80;99.90;;;;;;5136202;27;20071;-76
2022/11/18 11:56:42;;;;;;;14.23;5.80;;;7.80;99.90;;;;;;5045402;27;20057;-75
2022/11/18 11:59:27;;;;;;;;;;;7.70;99.90;;;;;;5136584;27;20088;-76
2022/11/18 12:02:31;;;;;;;14.63;5.63;;;7.60;99.90;;;;;;5117240;27;19919;-75
2022/11/18 12:05:10;;;;;;;16.80;6.20;;;7.50;99.90;;;;;;5101021;27;20061;-75
2022/11/18 12:07:49;;;;;;;14.27;5.38;;;7.50;99.90;;;;;;5135877;27;20043;-78
2022/11/18 12:10:29;;;;;;;14.63;5.72;;;7.40;99.90;;;;;;5136208;27;20395;-74
2022/11/18 12:13:02;;;;;;;13.48;5.03;;;7.40;99.90;;;;;;5135508;27;20035;-75
2022/11/18 12:15:47;;;;;;;13.13;4.82;;;7.40;99.90;;;;;;5135087;27;20047;-77
2022/11/18 12:18:36;;;;;;;15.45;4.60;;;7.40;99.90;;;;;;5117543;27;20047;-78
2022/11/18 12:21:02;;;;;;;14.70;4.93;;;7.40;99.90;;;;;;5135583;27;20047;-76
2022/11/18 12:23:29;;;;;;;11.27;4.22;;;7.40;99.90;;;;;;5117177;27;20355;-74
2022/11/18 12:26:03;;;;;;;;;;;7.40;99.90;;;;;;5116868;27;20055;-76
2022/11/18 12:28:32;;;;;;;13.55;4.75;;;7.50;99.90;;;;;;5135270;27;20370;-73
2022/11/18 12:31:16;;;;;;;12.38;4.57;;;7.50;99.90;;;;;;5116748;27;20043;-77
2022/11/18 12:33:53;;;;;;;14.85;4.70;;;7.50;99.90;;;;;;5135261;27;20047;-75
2022/11/18 12:36:31;;;;;;;14.85;5.55;;;7.40;99.90;;;;;;5134981;27;20138;-79
2022/11/18 12:39:18;;;;;;;14.98;5.10;;;7.40;99.90;;;;;;5116831;27;20054;-77
2022/11/18 12:44:36;;;;;;;13.55;4.72;;;7.40;99.90;;;;;;5117312;27;20368;-77
2022/11/18 12:47:02;;;;;;;12.80;4.78;;;7.30;99.90;;;;;;5134638;27;20054;-78
2022/11/18 12:49:28;;;;;;;15.63;5.50;;;7.20;99.90;;;;;;5134052;27;20082;-76
2022/11/18 12:51:59;;;;;;;19.27;6.63;;;7.20;99.90;;;;;;5116621;27;20051;-75
2022/11/18 12:54:42;;;;;;;17.35;6.53;;;7.10;99.90;;;;;;5134770;27;20050;-74
2022/11/18 12:57:30;;;;;;;20.35;7.28;;;7.10;99.90;;;;;;5099336;27;20047;-76
2022/11/18 12:59:56;;;;;;;18.45;6.90;;;7.10;99.90;;;;;;5116414;27;20130;-76
2022/11/18 13:02:29;;;;;;;18.10;6.60;;;7.00;99.90;;;;;;5134033;27;20461;-75
2022/11/18 13:05:04;;;;;;;19.13;6.88;;;7.00;99.90;;;;;;5133363;27;20123;-76
2022/11/18 13:08:33;;;;;;;20.80;7.05;;;6.90;99.90;;;;;;5115817;27;20047;-74
2022/11/18 13:10:32;;;;;;;17.95;6.75;;;6.90;99.90;;;;;;5120014;27;20046;-73
2022/11/18 13:12:58;;;;;;;17.67;6.03;;;6.90;99.90;;;;;;5116427;27;20100;-78
2022/11/18 13:18:18;;;;;;;16.25;6.07;;;6.80;99.90;;;;;;5119435;27;20130;-75
2022/11/18 13:20:57;;;;;;;16.98;6.18;;;6.70;99.90;;;;;;5134634;27;20054;-75